• Join FlightAware (Why Join?)
  • Login
  • US Flag 
08:32AM EDT


 

Airport Tracker/Info


-or-


 

Live Flight TrackerFlight Track Log ✈ SWG39 ✈ 26-Mar-2014 ✈ KPIE - CYHZ

Flight Track Log - Related Links

Times and Time Zones

All times are in EDT time to prevent confusion due to time zone crossing. See the SWG39 flight status page for this flight to view local times or setup timezone preferences in your user account.

Time Position Orientation Groundspeed Altitude Reporting Facility
EDT Latitude Longitude Course Direction KTS MPH feet Rate Location/Type
02:37PM 27.9333 -82.7000 24° Northeast 167 192 900  Level Tampa TRACON
02:39PM 28.0000 -82.6667 24° Northeast 220 253 3,100 2,220 Climbing Tampa TRACON
02:41PM 28.1642 -82.6311 11° North 259 298 9,400 2,280 Climbing Jacksonville Center
02:42PM 28.2478 -82.6311 360° North 269 310 11,100 1,800 Climbing Jacksonville Center
02:43PM 28.3458 -82.6308 360° North 308 354 13,000 1,980 Climbing Jacksonville Center
02:44PM 28.4503 -82.6375 357° North 346 398 15,100 2,160 Climbing Jacksonville Center
02:45PM 28.5586 -82.6397 359° North 374 430 17,400 1,980 Climbing Jacksonville Center
02:46PM 28.6714 -82.6394 360° North 388 447 19,100 1,800 Climbing Jacksonville Center
02:47PM 28.7944 -82.6439 358° North 393 452 21,100 1,860 Climbing Jacksonville Center
02:48PM 28.9136 -82.6458 359° North 406 467 22,900 1,740 Climbing Jacksonville Center
02:49PM 29.0325 -82.6481 359° North 419 482 24,600 1,620 Climbing Jacksonville Center
02:50PM 29.1514 -82.6525 358° North 424 488 26,200 1,260 Climbing Jacksonville Center
02:51PM 29.2725 -82.6569 358° North 419 482 27,200 780 Climbing Jacksonville Center
02:52PM 29.3936 -82.6589 359° North 425 489 27,800 360 Climbing Jacksonville Center
02:53PM 29.5083 -82.6636 358° North 436 502 28,000 360 Climbing Jacksonville Center
02:54PM 29.6294 -82.6681 358° North 442 509 28,600 960 Climbing Jacksonville Center
02:55PM 29.7506 -82.6700 359° North 442 509 30,000 1,500 Climbing Jacksonville Center
02:56PM 29.8697 -82.6747 358° North 437 503 31,700 1,380 Climbing Jacksonville Center
02:57PM 29.9886 -82.6767 359° North 432 497 32,800 960 Climbing Jacksonville Center
02:58PM 30.1036 -82.6742 North 418 481 33,700 720 Climbing Jacksonville Center
02:59PM 30.2203 -82.6761 359° North 418 481 34,300 540 Climbing Jacksonville Center
03:00PM 30.3372 -82.6808 358° North 418 481 34,800 300 Climbing Jacksonville Center
03:01PM 30.4522 -82.6831 359° North 418 481 35,000 60 Climbing Jacksonville Center
03:02PM 30.5689 -82.6297 21° North 428 493 35,000  Level Jacksonville Center
03:03PM 30.6711 -82.5183 43° Northeast 449 517 35,000  Level Jacksonville Center
03:04PM 30.7731 -82.4067 43° Northeast 472 543 35,000  Level Jacksonville Center
03:05PM 30.8728 -82.2947 44° Northeast 488 562 35,000  Level Jacksonville Center
03:06PM 30.9744 -82.1875 42° Northeast 493 567 35,000  Level Jacksonville Center
03:07PM 31.0719 -82.0775 44° Northeast 487 560 35,000  Level Jacksonville Center
03:08PM 31.1736 -81.9700 42° Northeast 487 560 35,000  Level Jacksonville Center
03:09PM 31.2750 -81.8594 43° Northeast 487 560 35,000  Level Jacksonville Center
03:10PM 31.3742 -81.7489 44° Northeast 487 560 35,000  Level Jacksonville Center
03:11PM 31.4858 -81.6281 43° Northeast 492 566 35,000  Level Jacksonville Center
03:12PM 31.5850 -81.5169 44° Northeast 485 558 35,000  Level Jacksonville Center
03:13PM 31.6736 -81.4181 44° Northeast 485 558 35,000  Level Jacksonville Center
03:14PM 31.7808 -81.2992 43° Northeast 485 558 35,000  Level Jacksonville Center
03:15PM 31.8692 -81.1997 44° Northeast 485 558 35,000  Level Jacksonville Center
03:16PM 31.9803 -81.0778 43° Northeast 492 566 35,000  Level Jacksonville Center
03:17PM 32.0706 -80.9778 43° Northeast 492 566 35,000  Level Jacksonville Center
03:18PM 32.1772 -80.8578 44° Northeast 484 557 35,000  Level Jacksonville Center
03:19PM 32.2758 -80.7475 43° Northeast 482 555 35,000  Level Jacksonville Center
03:20PM 32.3739 -80.6344 44° Northeast 483 556 35,000  Level Jacksonville Center
03:21PM 32.4700 -80.5214 45° Northeast 483 556 35,000  Level Jacksonville Center
03:22PM 32.5681 -80.4128 43° Northeast 478 550 35,000  Level Jacksonville Center
03:23PM 32.6558 -80.3117 44° Northeast 478 550 35,000  Level Jacksonville Center
03:24PM 32.7517 -80.2003 44° Northeast 478 550 35,000  Level Jacksonville Center
03:25PM 32.8494 -80.0886 44° Northeast 478 550 35,000  Level Jacksonville Center
03:26PM 32.9472 -79.9864 41° Northeast 478 550 35,000  Level Jacksonville Center
03:27PM 33.0494 -79.8867 39° Northeast 473 544 35,000  Level Jacksonville Center
03:28PM 33.1514 -79.7889 39° Northeast 473 544 35,000  Level Jacksonville Center
03:29PM 33.2553 -79.6883 39° Northeast 467 537 35,000  Level Jacksonville Center
03:30PM 33.3550 -79.5928 39° Northeast 467 537 35,000  Level Jacksonville Center
03:31PM 33.4567 -79.4919 40° Northeast 467 537 35,000  Level Jacksonville Center
03:32PM 33.5564 -79.3933 39° Northeast 462 532 35,000  Level Jacksonville Center
03:33PM 33.6558 -79.2947 40° Northeast 462 532 35,000  Level Jacksonville Center
03:34PM 33.7611 -79.1906 39° Northeast 456 525 35,000  Level Jacksonville Center
03:35PM 33.8625 -79.0911 39° Northeast 456 525 35,000  Level Jacksonville Center
03:37PM 34.0617 -78.8958 39° Northeast 462 532 35,000  Level Washington Center
03:38PM 34.1475 -78.8089 40° Northeast 457 526 35,000  Level Washington Center
03:39PM 34.2458 -78.7122 39° Northeast 457 526 35,000  Level Washington Center
03:40PM 34.3422 -78.6153 40° Northeast 457 526 35,000  Level Washington Center
03:41PM 34.4386 -78.5181 40° Northeast 452 520 35,000  Level Washington Center
03:42PM 34.5456 -78.4058 41° Northeast 452 520 35,000  Level Washington Center
03:43PM 34.6331 -78.3231 38° Northeast 452 520 35,000  Level Washington Center
03:44PM 34.7292 -78.2253 40° Northeast 452 520 35,000  Level Washington Center
03:45PM 34.8231 -78.1219 42° Northeast 447 514 35,000  Level Washington Center
03:46PM 34.9231 -78.0289 37° Northeast 453 521 35,000  Level Washington Center
03:47PM 35.0292 -77.9458 33° Northeast 453 521 35,000  Level Washington Center
03:48PM 35.1350 -77.8653 32° Northeast 448 516 35,000  Level Washington Center
03:49PM 35.2389 -77.7817 33° Northeast 448 516 35,000  Level Washington Center
03:50PM 35.3425 -77.7028 32° Northeast 443 510 35,000  Level Washington Center
03:51PM 35.4461 -77.6189 33° Northeast 443 510 35,000  Level Washington Center
03:52PM 35.5497 -77.5372 33° Northeast 443 510 35,000  Level Washington Center
03:53PM 35.6533 -77.4556 33° Northeast 443 510 35,000  Level Washington Center
03:54PM 35.7569 -77.3736 33° Northeast 443 510 35,000  Level Washington Center
03:55PM 35.8603 -77.2911 33° Northeast 443 510 35,000  Level Washington Center
03:56PM 35.9617 -77.2086 33° Northeast 443 510 35,000  Level Washington Center
03:57PM 36.0733 -77.1183 33° Northeast 443 510 35,000  Level Washington Center
03:58PM 36.1744 -77.0356 33° Northeast 443 510 35,000  Level Washington Center
03:59PM 36.2778 -76.9522 33° Northeast 443 510 35,000  Level Washington Center
04:00PM 36.3808 -76.8717 32° Northeast 443 510 35,000  Level Washington Center
04:01PM 36.4819 -76.7881 34° Northeast 443 510 35,000  Level Washington Center
04:02PM 36.5806 -76.7094 33° Northeast 438 504 35,000  Level Washington Center
04:03PM 36.6814 -76.6253 34° Northeast 438 504 35,000  Level Washington Center
04:04PM 36.7825 -76.5383 35° Northeast 438 504 35,000  Level Washington Center
04:05PM 36.8831 -76.4539 34° Northeast 438 504 35,000  Level Washington Center
04:06PM 36.9839 -76.3694 34° Northeast 438 504 35,000  Level Washington Center
04:07PM 37.0867 -76.2869 33° Northeast 438 504 35,000  Level Washington Center
04:08PM 37.1850 -76.2044 34° Northeast 433 498 35,000  Level Washington Center
04:09PM 37.2772 -76.1294 33° Northeast 433 498 35,000  Level Washington Center
04:10PM 37.3778 -76.0439 34° Northeast 433 498 35,000  Level Washington Center
04:11PM 37.4781 -75.9608 33° Northeast 433 498 35,000  Level Washington Center
04:12PM 37.5806 -75.8800 32° Northeast 433 498 35,000  Level Washington Center
04:13PM 37.6786 -75.7939 35° Northeast 433 498 35,000  Level Washington Center
04:14PM 37.7789 -75.7047 35° Northeast 438 504 35,000  Level Washington Center
04:15PM 37.8792 -75.6156 35° Northeast 438 504 35,000  Level Washington Center
04:16PM 37.9750 -75.5153 40° Northeast 438 504 35,000  Level Washington Center
04:17PM 38.0708 -75.4178 39° Northeast 438 504 35,000  Level Washington Center
04:18PM 38.1686 -75.3197 38° Northeast 443 510 35,000  Level Washington Center
04:19PM 38.2664 -75.2214 38° Northeast 443 510 35,000  Level Washington Center
04:20PM 38.3597 -75.1178 41° Northeast 443 510 35,000  Level Washington Center
04:21PM 38.4575 -75.0164 39° Northeast 443 510 35,000  Level Washington Center
04:22PM 38.5528 -74.9119 41° Northeast 448 516 35,000 120 Level Washington Center
04:28PM 39.1727 -74.2554 40° Northeast 467 537 36,100 180 Climbing FlightAware ADS-B (KPHL)
04:29PM 39.2267 -74.1975 40° Northeast 471 542 36,300 420 Climbing FlightAware ADS-B (KPHL)
04:29PM 39.2542 -74.1679 40° Northeast 474 545 36,600 420 Climbing FlightAware ADS-B (KPHL)
04:30PM 39.3218 -74.0951 40° Northeast 474 545 36,800 300 Climbing FlightAware ADS-B (KPHL)
04:31PM 39.3825 -74.0300 40° Northeast 472 543 37,000 60 Climbing Boston Center
04:32PM 39.5056 -73.8961 40° Northeast 480 552 37,000  Level Boston Center
04:33PM 39.6061 -73.7883 40° Northeast 479 551 37,000  Level Boston Center
04:34PM 39.7036 -73.6797 41° Northeast 471 542 37,000  Level Boston Center
04:35PM 39.8022 -73.5722 40° Northeast 467 537 37,000  Level Boston Center
04:36PM 39.9028 -73.4628 40° Northeast 467 537 37,000  Level Boston Center
04:37PM 40.0008 -73.3561 40° Northeast 465 535 37,000  Level Boston Center
04:38PM 40.0831 -73.2186 52° Northeast 475 547 37,000  Level Boston Center
04:39PM 40.1639 -73.0792 53° Northeast 479 551 37,000  Level Boston Center
04:40PM 40.2433 -72.9408 53° Northeast 480 552 37,000  Level Boston Center
04:41PM 40.3233 -72.8025 53° Northeast 481 554 37,000  Level Boston Center
04:42PM 40.4194 -72.6383 52° Northeast 478 550 37,000  Level Boston Center
04:47PM 40.8286 -71.9195 53° Northeast 484 557 37,000  Level FlightAware ADS-B
04:48PM 40.8945 -71.8026 54° Northeast 484 557 37,000  Level FlightAware ADS-B
04:49PM 40.9709 -71.6663 54° Northeast 484 557 37,000  Level FlightAware ADS-B
04:49PM 41.0251 -71.5692 54° Northeast 481 554 37,000  Level FlightAware ADS-B
04:51PM 41.1816 -71.2870 54° Northeast 481 554 37,000  Level FlightAware ADS-B
04:52PM 41.2210 -71.2158 53° Northeast 480 552 37,000  Level FlightAware ADS-B
04:52PM 41.2665 -71.1329 55° Northeast 476 548 37,000  Level FlightAware ADS-B (KASH)
04:53PM 41.3075 -71.0582 55° Northeast 476 548 37,000  Level FlightAware ADS-B (KASH)
04:53PM 41.3290 -71.0190 54° Northeast 481 554 37,000  Level FlightAware ADS-B
04:54PM 41.3580 -70.9661 54° Northeast 480 552 37,000  Level FlightAware ADS-B
04:54PM 41.3956 -70.8974 55° Northeast 476 548 37,000  Level FlightAware ADS-B (KASH)
04:55PM 41.4496 -70.7984 54° Northeast 480 552 37,000  Level FlightAware ADS-B
04:56PM 41.5458 -70.6226 54° Northeast 480 552 37,000  Level FlightAware ADS-B
04:57PM 41.6221 -70.4807 55° Northeast 481 554 37,000  Level FlightAware ADS-B
04:58PM 41.7009 -70.3330 55° Northeast 480 552 37,000  Level FlightAware ADS-B
04:59PM 41.7809 -70.1834 55° Northeast 480 552 37,000  Level FlightAware ADS-B
05:00PM 41.8574 -70.0399 55° Northeast 480 552 37,000  Level FlightAware ADS-B
05:01PM 41.9357 -69.8922 55° Northeast 482 555 37,000  Level FlightAware ADS-B
05:02PM 41.9826 -69.8029 55° Northeast 482 555 37,000  Level FlightAware ADS-B (KASH)
05:02PM 42.0193 -69.7330 55° Northeast 483 556 37,000  Level FlightAware ADS-B
05:03PM 42.0982 -69.5822 55° Northeast 484 557 37,000  Level FlightAware ADS-B (KBOS)
05:04PM 42.1494 -69.4836 55° Northeast 485 558 37,000  Level FlightAware ADS-B (KBOS)
05:05PM 42.2330 -69.3235 55° Northeast 484 557 37,000  Level FlightAware ADS-B (KBOS)
05:05PM 42.2806 -69.2312 55° Northeast 483 556 37,000  Level FlightAware ADS-B (KBOS)
05:06PM 42.3349 -69.1256 55° Northeast 481 554 37,000  Level FlightAware ADS-B (KBOS)
05:08PM 42.4790 -68.8442 55° Northeast 477 549 37,000  Level FlightAware ADS-B (KASH)
05:11PM 42.7310 -68.3467 56° Northeast 476 548 37,000  Level FlightAware ADS-B (CYQI)
05:12PM 42.7751 -68.2590 56° Northeast 476 548 37,000  Level FlightAware ADS-B (CYQI)
05:14PM 42.9300 -67.9469 56° Northeast 478 550 37,000  Level FlightAware ADS-B (CYQI)
05:15PM 42.9784 -67.8485 56° Northeast 481 554 37,000  Level FlightAware ADS-B (CYQI)
05:15PM 43.0298 -67.7450 56° Northeast 483 556 37,000  Level FlightAware ADS-B (CYQI)
05:16PM 43.0564 -67.6910 56° Northeast 483 556 37,000  Level FlightAware ADS-B (CYQI)
05:17PM 43.1221 -67.5572 56° Northeast 484 557 37,000  Level FlightAware ADS-B (CYQI)
05:18PM 43.1896 -67.4180 56° Northeast 485 558 37,000  Level FlightAware ADS-B (CYQI)
05:18PM 43.2381 -67.3185 56° Northeast 485 558 37,000  Level FlightAware ADS-B (CYQI)
05:19PM 43.2802 -67.2316 57° Northeast 486 559 37,000  Level FlightAware ADS-B (CYQI)
05:19PM 43.3159 -67.1572 57° Northeast 485 558 37,000  Level FlightAware ADS-B (CYQI)
05:20PM 43.3601 -67.0655 57° Northeast 485 558 37,000  Level FlightAware ADS-B (CYQI)
05:20PM 43.4034 -66.9751 57° Northeast 484 557 37,000  Level FlightAware ADS-B (CYQI)
05:21PM 43.4520 -66.8735 57° Northeast 484 557 37,000  Level FlightAware ADS-B (CYQI)
05:22PM 43.4980 -66.7771 57° Northeast 483 556 37,000  Level FlightAware ADS-B (CYQI)
05:22PM 43.5423 -66.6843 57° Northeast 482 555 37,000  Level FlightAware ADS-B (CYQI)
05:23PM 43.6129 -66.5348 57° Northeast 481 554 37,000  Level FlightAware ADS-B (CYQI)
05:25PM 43.7071 -66.3345 57° Northeast 480 552 37,000  Level FlightAware ADS-B (CYQI)
05:25PM 43.7505 -66.2420 57° Northeast 480 552 37,000  Level FlightAware ADS-B (CYQI)
05:26PM 43.7997 -66.1371 57° Northeast 480 552 37,000  Level FlightAware ADS-B (CYQI)
05:27PM 43.8477 -66.0304 59° Northeast 481 554 37,000  Level FlightAware ADS-B (CYQI)
05:27PM 43.8809 -65.9528 60° Northeast 476 548 37,000 -1,620 Level FlightAware ADS-B (CYQI)
05:28PM 43.9497 -65.7906 60° Northeast 472 543 34,500 -2,400 Descending FlightAware ADS-B (CYQI)
05:29PM 43.9906 -65.6939 60° Northeast 468 539 33,000 -2,340 Descending FlightAware ADS-B (CYQI)
05:29PM 44.0249 -65.6137 60° Northeast 460 529 31,900 -2,100 Descending FlightAware ADS-B (CYQI)
05:30PM 44.0539 -65.5444 60° Northeast 452 520 30,900 -2,160 Descending FlightAware ADS-B (CYQI)
05:30PM 44.0926 -65.4518 60° Northeast 439 505 29,400 -2,520 Descending FlightAware ADS-B (CYQI)
05:31PM 44.1357 -65.3490 60° Northeast 436 502 27,700 -2,820 Descending FlightAware ADS-B (CYQI)
05:32PM 44.1671 -65.2738 60° Northeast 433 498 26,200 -3,000 Descending FlightAware ADS-B (CYQI)
05:32PM 44.2061 -65.1809 60° Northeast 434 499 24,200 -3,000 Descending FlightAware ADS-B (CYQI)
05:33PM 44.2466 -65.0834 60° Northeast 428 493 22,200 -2,520 Descending FlightAware ADS-B (CYQI)
05:34PM 44.2865 -64.9866 60° Northeast 414 476 20,800 -2,220 Descending FlightAware ADS-B (CYQI)
05:34PM 44.3190 -64.9016 66° East 405 466 19,400 -2,160 Descending FlightAware ADS-B (CYQI)
05:35PM 44.3501 -64.8055 66° East 394 453 18,000 -2,220 Descending FlightAware ADS-B (CYQI)
05:36PM 44.3760 -64.7251 66° East 385 443 16,300 -2,280 Descending FlightAware ADS-B (CYQI)
05:36PM 44.4051 -64.6350 66° East 379 436 15,200 -2,100 Descending FlightAware ADS-B (CYQI)
05:37PM 44.4302 -64.5575 66° East 376 433 14,000 -2,400 Descending FlightAware ADS-B (CYQI)
05:38PM 44.4500 -64.4500 66° East 360 414 11,800 -1,440 Descending Moncton Center
05:39PM 44.4833 -64.3333 68° East 330 380 11,400 -780 Descending Moncton Center
05:40PM 44.5167 -64.2333 65° Northeast 290 334 10,300 -1,140 Descending Moncton Center
05:41PM 44.5500 -64.1333 65° Northeast 270 311 9,200 -1,080 Descending Moncton Center
05:42PM 44.5667 -64.0500 74° East 260 299 8,200 -900 Descending Moncton Center
05:43PM 44.6000 -63.9500 65° Northeast 250 288 7,400 -960 Descending Moncton Center
05:44PM 44.6333 -63.8833 55° Northeast 240 276 6,300 -1,020 Descending Moncton Center
05:45PM 44.6500 -63.7833 77° East 230 265 5,400 -660 Descending Moncton Center
05:46PM 44.6833 -63.7167 55° Northeast 210 242 5,000 -780 Descending Moncton Center
05:47PM 44.7167 -63.6500 55° Northeast 180 207 3,900 -900 Descending Moncton Center
05:48PM 44.7333 -63.6167 55° Northeast 140 161 3,200 -720 Descending Moncton Center
05:49PM 44.7667 -63.6000 20° North 110 127 2,500 -600 Descending Moncton Center
05:50PM 44.7833 -63.5667 55° Northeast 100 115 2,000 -600 Descending Moncton Center
05:51PM 44.8167 -63.5500 20° North 110 127 1,400 -480 Descending Moncton Center
05:52PM 44.8500 -63.5167 35° Northeast 120 138 1,100 780 Descending Moncton Center
05:53PM 44.8667 -63.5000 35° Northeast 140 161 3,000 900 Climbing Moncton Center
05:54PM 44.9167 -63.4500 35° Northeast 170 196 3,000  Level Moncton Center
05:55PM 44.9500 -63.5000 313° West 260 299 3,000  Level Moncton Center
05:56PM 44.9000 -63.6000 235° Southwest 290 334 3,000  Level Moncton Center
05:57PM 44.8333 -63.6833 222° Southwest 300 345 3,000 -60 Level Moncton Center
05:58PM 44.7833 -63.7667 230° Southwest 280 322 2,900 -300 Descending Moncton Center
05:59PM 44.7333 -63.7167 145° Southeast 190 219 2,400 -420 Descending Moncton Center
06:00PM 44.7333 -63.6500 90° East 140 161 2,100 -120 Descending Moncton Center
06:01PM 44.7500 -63.6167 55° Northeast 120 138 2,200  Climbing Moncton Center
06:02PM 44.7833 -63.6000 20° North 120 138 2,100 -300 Descending Moncton Center
06:03PM 44.8000 -63.5500 65° Northeast 120 138 1,700 -600 Descending Moncton Center
06:04PM 44.8333 -63.5167 35° Northeast 120 138 1,000 -600 Descending Moncton Center
06:05PM 44.8500 -63.5000 35° Northeast 130 150 500 -540 Descending Moncton Center